Terminal Aerodrome Forecast
Issued by NWS Kansas City/Pleasant Hill, MO

Home | Current Version | Previous Version | Text Only | Print | Product List | Glossary On
Versions: 1 2 3 4 5 6 7 8 9 10 11 12 13 14 15
000
FTUS43 KEAX 202322
TAFMCI
TAF
KMCI 202322Z 2100/2124 34012KT P6SM OVC020
      TEMPO 2100/2102 OVC015
     FM210200 36012KT P6SM BKN045
     FM210400 01012KT P6SM SCT200=

USA.gov is the U.S. government's official web portal to all federal, state and local government web resources and services.